KMGR/MGR METAR and TAF weather

Enter ICAO airport designator
Station Type Date Time Source
KMGR METAR 2024/07/12 13:35 UTC NOAA

KMGR 121335Z AUTO 31004KT 10SM CLR 27/22 A3007 RMK AO2 T02720221 $


Station Type Date Time Source
KMGR Decoded METAR 2024/07/12 13:35 UTC NOAA

Moultrie, Moultrie Municipal Airport, GA, United States (KMGR) 31-05-05N 083-48-11W
Jul 12, 2024 - 09:35 AM EDT / 2024.07.12 1335 UTC
Wind: from the NW (310 degrees) at 5 MPH (4 KT):0
Visibility: 10 mile(s):0
Sky conditions: clear
Temperature: 81.0 F (27.2 C)
Dew Point: 71.8 F (22.1 C)
Relative Humidity: 73%
Pressure (altimeter): 30.07 in. Hg (1018 hPa)
ob: KMGR 121335Z AUTO 31004KT 10SM CLR 27/22 A3007 RMK AO2 T02720221
cycle: 13

Station Type Date Time Source
KMGR TAF UTC NOAA

Error!

Example: see airport list